| time (UTC) | temp F | wind direction | speed MPH | gust MPH | rain 1hr in | rain 24hr in | rain mn in | humidity % | barometer mb |
| 20260903102204 | 67 | 232 | 0.0 | 1.0 | 0.00 | 0.18 | 0.18 | 91 | 1014.2 |
| 20260903101704 | 67 | 232 | 0.0 | 0.0 | 0.00 | 0.18 | 0.18 | 91 | 1014.2 |
| 20260903101204 | 67 | 232 | 0.0 | 0.0 | 0.00 | 0.18 | 0.18 | 91 | 1014.2 |
| 20260903100704 | 67 | 232 | 0.0 | 0.0 | 0.00 | 0.18 | 0.18 | 91 | 1014.1 |
| 20260903100204 | 67 | 232 | 0.0 | 0.0 | 0.00 | 0.18 | 0.18 | 91 | 1014.3 |
| 20260903095703 | 67 | 232 | 0.0 | 0.0 | 0.00 | 0.18 | 0.18 | 90 | 1014.2 |
| 20260903095204 | 67 | 232 | 0.0 | 0.0 | 0.00 | 0.18 | 0.18 | 91 | 1014.2 |
| 20260903094704 | 67 | 232 | 0.0 | 0.0 | 0.00 | 0.18 | 0.18 | 91 | 1014.2 |
| 20260903094203 | 67 | 232 | 0.0 | 0.0 | 0.00 | 0.18 | 0.18 | 91 | 1014.2 |
| 20260903093704 | 67 | 232 | 0.0 | 0.0 | 0.00 | 0.18 | 0.18 | 91 | 1014.1 |
| 20260903093203 | 67 | 232 | 0.0 | 0.0 | 0.00 | 0.18 | 0.18 | 90 | 1013.9 |
| 20260903092704 | 67 | 232 | 0.0 | 0.0 | 0.00 | 0.18 | 0.18 | 90 | 1014.0 |
| 20260903092204 | 67 | 232 | 0.0 | 0.0 | 0.00 | 0.18 | 0.18 | 90 | 1014.1 |
| 20260903091204 | 67 | 232 | 0.0 | 1.0 | 0.00 | 0.18 | 0.18 | 90 | 1014.2 |
| 20260903090704 | 67 | 232 | 0.0 | 0.0 | 0.00 | 0.18 | 0.18 | 90 | 1014.2 |
| 20260903090203 | 67 | 232 | 0.0 | 0.0 | 0.00 | 0.18 | 0.18 | 90 | 1014.1 |
| 20260903085703 | 67 | 232 | 0.0 | 0.0 | 0.00 | 0.18 | 0.18 | 90 | 1014.2 |
| 20260903085204 | 67 | 232 | 0.0 | 0.0 | 0.00 | 0.18 | 0.18 | 90 | 1014.4 |
| 20260903084703 | 67 | 232 | 0.0 | 0.0 | 0.00 | 0.18 | 0.18 | 90 | 1014.4 |
| 20260903084204 | 67 | 232 | 0.0 | 1.0 | 0.00 | 0.18 | 0.18 | 90 | 1014.4 |
| 20260903083704 | 66 | 232 | 0.0 | 1.0 | 0.00 | 0.18 | 0.18 | 90 | 1014.4 |
| 20260903083203 | 66 | 232 | 0.0 | 1.0 | 0.00 | 0.18 | 0.18 | 90 | 1014.5 |
| 20260903082703 | 66 | 232 | 0.0 | 2.0 | 0.00 | 0.18 | 0.18 | 90 | 1014.6 |
| 20260903082203 | 66 | 232 | 0.0 | 1.0 | 0.00 | 0.18 | 0.18 | 90 | 1014.6 |
| 20260903081703 | 66 | 232 | 0.0 | 1.0 | 0.00 | 0.18 | 0.18 | 90 | 1014.6 |
| 20260903081203 | 66 | 233 | 1.0 | 3.0 | 0.00 | 0.18 | 0.18 | 90 | 1014.6 |
| 20260903080704 | 66 | 245 | 0.0 | 1.0 | 0.00 | 0.18 | 0.18 | 90 | 1014.5 |
| 20260903080203 | 66 | 245 | 0.0 | 3.0 | 0.00 | 0.18 | 0.18 | 90 | 1014.5 |
| 20260903075703 | 66 | 244 | 0.0 | 1.0 | 0.00 | 0.18 | 0.18 | 90 | 1014.4 |
| 20260903075205 | 66 | 244 | 1.0 | 2.0 | 0.00 | 0.18 | 0.18 | 90 | 1014.4 |
| 20260903074704 | 66 | 245 | 0.0 | 2.0 | 0.00 | 0.18 | 0.18 | 90 | 1014.4 |
| 20260903074204 | 66 | 245 | 0.0 | 2.0 | 0.00 | 0.18 | 0.18 | 90 | 1014.4 |
| 20260903073703 | 66 | 245 | 0.0 | 1.0 | 0.00 | 0.18 | 0.18 | 90 | 1014.5 |
| 20260903073204 | 66 | 245 | 0.0 | 1.0 | 0.00 | 0.18 | 0.18 | 90 | 1014.6 |
| 20260903072703 | 66 | 245 | 1.0 | 3.0 | 0.00 | 0.18 | 0.18 | 90 | 1014.8 |
| 20260903072203 | 66 | 245 | 1.0 | 2.0 | 0.00 | 0.18 | 0.18 | 90 | 1014.8 |
| 20260903071705 | 65 | 245 | 0.0 | 1.0 | 0.00 | 0.18 | 0.18 | 90 | 1014.7 |
| 20260903071204 | 65 | 245 | 0.0 | 1.0 | 0.00 | 0.18 | 0.18 | 90 | 1014.6 |
| 20260903070203 | 65 | 245 | 0.0 | 1.0 | 0.00 | 0.18 | 0.18 | 90 | 1014.7 |
| 20260903065704 | 65 | 245 | 0.0 | 1.0 | 0.00 | 0.18 | 0.18 | 90 | 1014.7 |
| 20260903065204 | 65 | 245 | 0.0 | 1.0 | 0.00 | 0.18 | 0.18 | 90 | 1014.7 |
| 20260903064704 | 65 | 245 | 1.0 | 2.0 | 0.00 | 0.18 | 0.18 | 90 | 1014.7 |
| 20260903063705 | 65 | 120 | 0.0 | 0.0 | 0.01 | 0.19 | 0.18 | 90 | 1014.5 |
| 20260903063204 | 65 | 120 | 0.0 | 0.0 | 0.02 | 0.19 | 0.18 | 89 | 1014.7 |
| 20260903062704 | 65 | 120 | 0.0 | 0.0 | 0.03 | 0.19 | 0.18 | 89 | 1014.8 |
| 20260903062204 | 65 | 120 | 0.0 | 0.0 | 0.05 | 0.19 | 0.18 | 89 | 1014.9 |
| 20260903061703 | 65 | 120 | 0.0 | 1.0 | 0.06 | 0.19 | 0.18 | 89 | 1015.1 |
| 20260903061204 | 65 | 120 | 0.0 | 1.0 | 0.07 | 0.19 | 0.18 | 89 | 1015.1 |
| 20260903060704 | 65 | 119 | 1.0 | 2.0 | 0.08 | 0.19 | 0.18 | 89 | 1015.3 |
| 20260903060204 | 64 | 118 | 0.0 | 1.0 | 0.08 | 0.19 | 0.18 | 89 | 1015.2 |
| 20260903055704 | 64 | 118 | 0.0 | 0.0 | 0.09 | 0.19 | 0.18 | 89 | 1015.4 |
| 20260903054703 | 64 | 118 | 0.0 | 2.0 | 0.11 | 0.19 | 0.18 | 89 | 1015.5 |
| 20260903054205 | 64 | 118 | 1.0 | 2.0 | 0.12 | 0.18 | 0.17 | 89 | 1015.7 |
| 20260903053204 | 64 | 122 | 0.0 | 1.0 | 0.14 | 0.17 | 0.16 | 88 | 1015.9 |
| 20260903052204 | 64 | 122 | 1.0 | 2.0 | 0.13 | 0.14 | 0.13 | 88 | 1016.2 |
| 20260903051703 | 64 | 131 | 1.0 | 2.0 | 0.12 | 0.13 | 0.12 | 88 | 1016.3 |
| 20260903050704 | 64 | 166 | 0.0 | 2.0 | 0.10 | 0.11 | 0.10 | 87 | 1016.5 |
| 20260903050204 | 64 | 166 | 0.0 | 1.0 | 0.10 | 0.11 | 0.10 | 87 | 1016.7 |
| 20260903045705 | 64 | 166 | 0.0 | 1.0 | 0.08 | 0.10 | 0.09 | 87 | 1017.0 |
| 20260903045203 | 64 | 166 | 0.0 | 0.0 | 0.07 | 0.09 | 0.08 | 87 | 1017.1 |
| 20260903044704 | 64 | 166 | 0.0 | 0.0 | 0.06 | 0.08 | 0.07 | 86 | 1017.2 |
| 20260903044204 | 65 | 166 | 0.0 | 1.0 | 0.04 | 0.06 | 0.05 | 86 | 1017.4 |
| 20260903043704 | 65 | 166 | 0.0 | 1.0 | 0.02 | 0.04 | 0.03 | 85 | 1017.4 |
| 20260903043204 | 65 | 167 | 0.0 | 1.0 | 0.01 | 0.03 | 0.02 | 85 | 1017.6 |
| 20260903042204 | 65 | 167 | 0.0 | 5.0 | 0.00 | 0.01 | 0.00 | 83 | 1017.5 |
| 20260903041204 | 65 | 224 | 0.0 | 2.0 | 0.00 | 0.01 | 0.00 | 83 | 1017.5 |
| 20260903040704 | 65 | 225 | 0.0 | 1.0 | 0.00 | 0.01 | 0.00 | 83 | 1017.6 |
| 20260903035705 | 65 | 225 | 0.0 | 1.0 | 0.00 | 0.01 | 0.01 | 82 | 1017.6 |
| 20260903035204 | 65 | 225 | 0.0 | 1.0 | 0.00 | 0.01 | 0.01 | 82 | 1017.5 |
| 20260903034705 | 65 | 225 | 1.0 | 3.0 | 0.00 | 0.01 | 0.01 | 82 | 1017.4 |
| 20260903034204 | 65 | 225 | 0.0 | 1.0 | 0.00 | 0.01 | 0.01 | 81 | 1017.4 |
| 20260903033704 | 65 | 225 | 0.0 | 1.0 | 0.00 | 0.01 | 0.01 | 81 | 1017.3 |
| 20260903033204 | 65 | 225 | 0.0 | 0.0 | 0.00 | 0.01 | 0.01 | 81 | 1017.4 |
| 20260903032704 | 65 | 225 | 0.0 | 1.0 | 0.00 | 0.01 | 0.01 | 81 | 1017.6 |
| 20260903032204 | 65 | 225 | 0.0 | 2.0 | 0.00 | 0.01 | 0.01 | 81 | 1017.4 |
| 20260903031704 | 65 | 225 | 0.0 | 1.0 | 0.00 | 0.01 | 0.01 | 82 | 1017.5 |
| 20260903031205 | 65 | 225 | 0.0 | 2.0 | 0.00 | 0.01 | 0.01 | 82 | 1017.3 |
| 20260903030704 | 65 | 225 | 1.0 | 2.0 | 0.00 | 0.01 | 0.01 | 82 | 1017.0 |
| 20260903025704 | 65 | 222 | 1.0 | 2.0 | 0.00 | 0.01 | 0.01 | 82 | 1017.2 |
| 20260903025204 | 65 | 222 | 0.0 | 0.0 | 0.00 | 0.01 | 0.01 | 82 | 1017.2 |
| 20260903024704 | 65 | 222 | 0.0 | 1.0 | 0.00 | 0.01 | 0.01 | 83 | 1017.4 |
| 20260903024204 | 65 | 222 | 0.0 | 1.0 | 0.00 | 0.01 | 0.01 | 82 | 1017.6 |
| 20260903023704 | 65 | 222 | 0.0 | 1.0 | 0.00 | 0.01 | 0.01 | 83 | 1017.7 |
| 20260903023204 | 65 | 222 | 0.0 | 1.0 | 0.00 | 0.01 | 0.01 | 84 | 1017.9 |
| 20260903022704 | 64 | 222 | 0.0 | 1.0 | 0.00 | 0.01 | 0.01 | 84 | 1018.2 |
| 20260903022204 | 64 | 222 | 0.0 | 1.0 | 0.00 | 0.01 | 0.01 | 84 | 1018.4 |
| 20260903021706 | 64 | 222 | 0.0 | 0.0 | 0.00 | 0.01 | 0.01 | 84 | 1018.7 |
| 20260903021204 | 64 | 222 | 0.0 | 1.0 | 0.00 | 0.01 | 0.01 | 84 | 1018.7 |
| 20260903020704 | 65 | 222 | 0.0 | 1.0 | 0.00 | 0.01 | 0.01 | 84 | 1018.7 |
| 20260903020204 | 65 | 222 | 0.0 | 0.0 | 0.00 | 0.01 | 0.01 | 84 | 1018.8 |
| 20260903015703 | 65 | 222 | 0.0 | 0.0 | 0.00 | 0.01 | 0.01 | 83 | 1018.7 |
| 20260903014204 | 65 | 222 | 0.0 | 1.0 | 0.00 | 0.01 | 0.01 | 83 | 1019.0 |
| 20260903013704 | 66 | 222 | 0.0 | 1.0 | 0.00 | 0.01 | 0.01 | 82 | 1019.1 |
| 20260903013204 | 66 | 222 | 0.0 | 1.0 | 0.00 | 0.01 | 0.01 | 82 | 1019.1 |
| 20260903012704 | 66 | 222 | 0.0 | 2.0 | 0.00 | 0.01 | 0.01 | 80 | 1019.1 |
| 20260903012204 | 66 | 222 | 0.0 | 2.0 | 0.00 | 0.01 | 0.01 | 80 | 1019.2 |
| 20260903011704 | 66 | 222 | 0.0 | 1.0 | 0.00 | 0.01 | 0.01 | 79 | 1019.2 |
| 20260903011204 | 66 | 222 | 0.0 | 2.0 | 0.00 | 0.01 | 0.01 | 78 | 1019.1 |
| 20260903010705 | 66 | 222 | 0.0 | 1.0 | 0.00 | 0.01 | 0.01 | 78 | 1019.0 |
| 20260903005704 | 66 | 222 | 1.0 | 2.0 | 0.00 | 0.01 | 0.01 | 77 | 1018.6 |
| 20260903005204 | 66 | 222 | 0.0 | 2.0 | 0.00 | 0.01 | 0.01 | 78 | 1018.5 |
| 20260903004704 | 66 | 222 | 1.0 | 3.0 | 0.00 | 0.01 | 0.01 | 78 | 1018.2 |
| 20260903004204 | 66 | 222 | 0.0 | 2.0 | 0.00 | 0.01 | 0.01 | 78 | 1017.8 |
| 20260903003704 | 66 | 222 | 0.0 | 3.0 | 0.00 | 0.01 | 0.01 | 79 | 1017.7 |
| 20260903003204 | 66 | 245 | 0.0 | 2.0 | 0.00 | 0.01 | 0.01 | 79 | 1017.7 |
| 20260903002704 | 66 | 245 | 1.0 | 3.0 | 0.00 | 0.01 | 0.01 | 79 | 1017.8 |
| 20260903002204 | 66 | 245 | 0.0 | 2.0 | 0.00 | 0.01 | 0.01 | 80 | 1017.9 |
| 20260903001704 | 67 | 245 | 0.0 | 0.0 | 0.00 | 0.01 | 0.01 | 78 | 1017.8 |
| 20260903001205 | 67 | 245 | 0.0 | 2.0 | 0.00 | 0.01 | 0.01 | 78 | 1018.1 |
| 20260903000704 | 67 | 245 | 2.0 | 3.0 | 0.00 | 0.01 | 0.01 | 77 | 1018.2 |
| 20260903000204 | 67 | 245 | 1.0 | 2.0 | 0.00 | 0.01 | 0.01 | 77 | 1018.3 |
| 20260902235704 | 67 | 245 | 1.0 | 3.0 | 0.00 | 0.01 | 0.01 | 77 | 1018.4 |
| 20260902235203 | 66 | 245 | 0.0 | 3.0 | 0.00 | 0.01 | 0.01 | 78 | 1018.2 |
| 20260902234703 | 66 | 245 | 1.0 | 3.0 | 0.00 | 0.01 | 0.01 | 80 | 1018.2 |
| 20260902234204 | 66 | 203 | 1.0 | 2.0 | 0.00 | 0.01 | 0.01 | 80 | 1018.2 |
| 20260902233704 | 66 | 203 | 0.0 | 2.0 | 0.00 | 0.01 | 0.01 | 79 | 1018.3 |
| 20260902233204 | 66 | 203 | 1.0 | 2.0 | 0.00 | 0.01 | 0.01 | 80 | 1018.3 |
| 20260902232204 | 66 | 268 | 0.0 | 2.0 | 0.00 | 0.01 | 0.01 | 80 | 1018.2 |
| 20260902231704 | 67 | 268 | 0.0 | 0.0 | 0.00 | 0.01 | 0.01 | 80 | 1018.3 |
| 20260902231204 | 67 | 268 | 0.0 | 0.0 | 0.00 | 0.01 | 0.01 | 79 | 1018.4 |
| 20260902230703 | 67 | 268 | 0.0 | 1.0 | 0.00 | 0.01 | 0.01 | 77 | 1018.6 |
| 20260902230204 | 68 | 268 | 1.0 | 2.0 | 0.00 | 0.01 | 0.01 | 78 | 1018.7 |
| 20260902225705 | 67 | 268 | 1.0 | 2.0 | 0.00 | 0.01 | 0.01 | 78 | 1018.8 |
| 20260902225204 | 68 | 268 | 1.0 | 2.0 | 0.00 | 0.01 | 0.01 | 80 | 1019.0 |
| 20260902224704 | 68 | 268 | 0.0 | 1.0 | 0.00 | 0.01 | 0.01 | 79 | 1019.1 |
| 20260902224203 | 68 | 268 | 1.0 | 2.0 | 0.00 | 0.01 | 0.01 | 77 | 1019.3 |
| 20260902223704 | 68 | 269 | 2.0 | 3.0 | 0.00 | 0.01 | 0.01 | 77 | 1019.4 |
| 20260902222704 | 68 | 88 | 1.0 | 2.0 | 0.00 | 0.01 | 0.01 | 78 | 1019.4 |
| 20260902221704 | 68 | 89 | 0.0 | 1.0 | 0.00 | 0.01 | 0.01 | 79 | 1019.2 |
| 20260902220704 | 69 | 88 | 0.0 | 1.0 | 0.00 | 0.01 | 0.01 | 79 | 1019.5 |
| 20260902220204 | 69 | 88 | 0.0 | 2.0 | 0.00 | 0.01 | 0.01 | 79 | 1019.6 |
| 20260902215704 | 69 | 88 | 0.0 | 2.0 | 0.00 | 0.01 | 0.01 | 79 | 1019.7 |
| 20260902214705 | 69 | 173 | 0.0 | 1.0 | 0.00 | 0.01 | 0.01 | 79 | 1019.6 |
| 20260902214218 | 69 | 173 | 0.0 | 2.0 | 0.00 | 0.01 | 0.01 | 78 | 1019.5 |
| 20260902213704 | 69 | 173 | 0.0 | 2.0 | 0.00 | 0.01 | 0.01 | 78 | 1019.4 |
| 20260902213204 | 69 | 173 | 0.0 | 1.0 | 0.00 | 0.01 | 0.01 | 78 | 1019.3 |
| 20260902212704 | 69 | 173 | 0.0 | 2.0 | 0.00 | 0.01 | 0.01 | 79 | 1019.2 |
| 20260902211704 | 69 | 173 | 1.0 | 2.0 | 0.00 | 0.01 | 0.01 | 79 | 1019.2 |
| 20260902210705 | 69 | 173 | 0.0 | 1.0 | 0.00 | 0.01 | 0.01 | 79 | 1019.2 |
| 20260902210204 | 69 | 173 | 0.0 | 0.0 | 0.00 | 0.02 | 0.01 | 80 | 1019.4 |
| 20260902205704 | 69 | 173 | 0.0 | 0.0 | 0.00 | 0.02 | 0.01 | 80 | 1019.4 |
| 20260902205204 | 69 | 173 | 0.0 | 1.0 | 0.00 | 0.02 | 0.01 | 80 | 1019.4 |
| 20260902204204 | 69 | 173 | 0.0 | 1.0 | 0.00 | 0.03 | 0.01 | 79 | 1019.6 |
| 20260902203704 | 69 | 173 | 1.0 | 3.0 | 0.00 | 0.03 | 0.01 | 79 | 1019.5 |
| 20260902203204 | 69 | 165 | 0.0 | 2.0 | 0.00 | 0.03 | 0.01 | 79 | 1019.3 |
| 20260902202704 | 69 | 165 | 1.0 | 2.0 | 0.00 | 0.03 | 0.01 | 78 | 1019.2 |
| 20260902202204 | 69 | 168 | 1.0 | 3.0 | 0.00 | 0.03 | 0.01 | 79 | 1019.2 |
| 20260902201704 | 69 | 203 | 0.0 | 3.0 | 0.00 | 0.03 | 0.01 | 79 | 1019.2 |
| 20260902201204 | 69 | 99 | 0.0 | 3.0 | 0.00 | 0.03 | 0.01 | 78 | 1019.2 |
| 20260902200704 | 69 | 300 | 1.0 | 3.0 | 0.00 | 0.03 | 0.01 | 79 | 1019.3 |
| 20260902200204 | 69 | 97 | 0.0 | 1.0 | 0.00 | 0.03 | 0.01 | 79 | 1019.3 |
| 20260902195704 | 69 | 95 | 0.0 | 2.0 | 0.00 | 0.03 | 0.01 | 78 | 1019.3 |
| 20260902195203 | 69 | 58 | 0.0 | 2.0 | 0.00 | 0.03 | 0.01 | 79 | 1019.4 |
| 20260902194704 | 69 | 64 | 1.0 | 3.0 | 0.00 | 0.03 | 0.01 | 78 | 1019.5 |
| 20260902194204 | 69 | 278 | 0.0 | 7.0 | 0.00 | 0.03 | 0.01 | 79 | 1019.5 |
| 20260902193704 | 69 | 257 | 0.0 | 2.0 | 0.00 | 0.03 | 0.01 | 79 | 1019.5 |
| 20260902193204 | 69 | 258 | 1.0 | 2.0 | 0.00 | 0.03 | 0.01 | 78 | 1019.5 |
| 20260902192704 | 69 | 257 | 1.0 | 3.0 | 0.00 | 0.03 | 0.01 | 78 | 1019.7 |
| 20260902192204 | 69 | 277 | 1.0 | 3.0 | 0.00 | 0.03 | 0.01 | 79 | 1019.7 |
| 20260902191704 | 68 | 301 | 0.0 | 1.0 | 0.00 | 0.03 | 0.01 | 80 | 1019.6 |
| 20260902191204 | 68 | 301 | 0.0 | 2.0 | 0.00 | 0.03 | 0.01 | 80 | 1019.6 |
| 20260902190704 | 68 | 301 | 0.0 | 1.0 | 0.00 | 0.04 | 0.01 | 80 | 1019.7 |
| 20260902190204 | 67 | 299 | 0.0 | 0.0 | 0.00 | 0.04 | 0.01 | 81 | 1019.9 |
| 20260902185704 | 67 | 299 | 0.0 | 0.0 | 0.00 | 0.05 | 0.01 | 81 | 1020.0 |
| 20260902185205 | 67 | 299 | 0.0 | 0.0 | 0.00 | 0.06 | 0.01 | 81 | 1020.3 |
| 20260902184704 | 67 | 299 | 0.0 | 0.0 | 0.00 | 0.09 | 0.01 | 81 | 1020.4 |
| 20260902184204 | 67 | 299 | 0.0 | 1.0 | 0.00 | 0.12 | 0.01 | 81 | 1020.3 |
| 20260902182704 | 68 | 299 | 0.0 | 2.0 | 0.00 | 0.14 | 0.01 | 78 | 1020.6 |
| 20260902182204 | 68 | 314 | 1.0 | 2.0 | 0.00 | 0.14 | 0.01 | 78 | 1020.6 |
| 20260902181204 | 68 | 314 | 1.0 | 2.0 | 0.00 | 0.14 | 0.01 | 77 | 1020.3 |
| 20260902180704 | 68 | 314 | 0.0 | 2.0 | 0.00 | 0.14 | 0.01 | 76 | 1020.0 |
| 20260902180205 | 68 | 314 | 1.0 | 2.0 | 0.00 | 0.15 | 0.01 | 78 | 1019.9 |
| 20260902175704 | 68 | 314 | 0.0 | 2.0 | 0.00 | 0.19 | 0.01 | 77 | 1019.9 |
| 20260902175204 | 68 | 314 | 1.0 | 2.0 | 0.00 | 0.22 | 0.01 | 75 | 1019.9 |
| 20260902174704 | 69 | 314 | 0.0 | 2.0 | 0.00 | 0.24 | 0.01 | 75 | 1019.9 |
| 20260902174204 | 69 | 315 | 1.0 | 2.0 | 0.00 | 0.24 | 0.01 | 76 | 1019.8 |
| 20260902173704 | 70 | 91 | 1.0 | 2.0 | 0.00 | 0.30 | 0.01 | 75 | 1019.8 |
| 20260902173204 | 70 | 91 | 1.0 | 2.0 | 0.00 | 0.44 | 0.01 | 77 | 1019.8 |
| 20260902172704 | 69 | 91 | 0.0 | 1.0 | 0.00 | 0.49 | 0.01 | 76 | 1020.1 |
| 20260902172203 | 69 | 91 | 0.0 | 1.0 | 0.00 | 0.53 | 0.01 | 76 | 1020.3 |
| 20260902171704 | 68 | 91 | 0.0 | 1.0 | 0.00 | 0.65 | 0.01 | 76 | 1020.5 |
| 20260902171204 | 68 | 91 | 0.0 | 2.0 | 0.00 | 0.70 | 0.01 | 76 | 1020.5 |
| 20260902170704 | 68 | 106 | 0.0 | 2.0 | 0.00 | 0.79 | 0.01 | 75 | 1020.7 |
| 20260902170204 | 68 | 106 | 0.0 | 2.0 | 0.00 | 0.83 | 0.01 | 75 | 1020.6 |
| 20260902165704 | 68 | 106 | 0.0 | 2.0 | 0.00 | 0.85 | 0.01 | 76 | 1020.7 |
| 20260902165204 | 68 | 131 | 0.0 | 1.0 | 0.00 | 0.85 | 0.01 | 77 | 1020.7 |
| 20260902163704 | 68 | 132 | 0.0 | 2.0 | 0.00 | 0.85 | 0.01 | 75 | 1020.7 |
| 20260902163204 | 68 | 132 | 0.0 | 1.0 | 0.00 | 0.85 | 0.01 | 75 | 1020.7 |
| 20260902162704 | 68 | 132 | 0.0 | 1.0 | 0.00 | 0.85 | 0.01 | 75 | 1020.7 |
| 20260902162204 | 68 | 132 | 0.0 | 1.0 | 0.00 | 0.85 | 0.01 | 76 | 1020.7 |
| 20260902161704 | 68 | 132 | 1.0 | 3.0 | 0.00 | 0.85 | 0.01 | 75 | 1020.7 |
| 20260902161204 | 68 | 142 | 0.0 | 1.0 | 0.00 | 0.85 | 0.01 | 76 | 1020.6 |
| 20260902160704 | 68 | 142 | 0.0 | 2.0 | 0.00 | 0.85 | 0.01 | 74 | 1020.7 |
| 20260902160204 | 68 | 235 | 1.0 | 2.0 | 0.00 | 0.85 | 0.01 | 75 | 1020.7 |
| 20260902155204 | 68 | 236 | 1.0 | 2.0 | 0.00 | 0.85 | 0.01 | 76 | 1020.6 |
| 20260902154705 | 68 | 69 | 1.0 | 3.0 | 0.00 | 0.85 | 0.01 | 77 | 1020.5 |
| 20260902154204 | 68 | 69 | 0.0 | 1.0 | 0.00 | 0.85 | 0.01 | 77 | 1020.5 |
| 20260902153704 | 68 | 68 | 0.0 | 2.0 | 0.00 | 0.85 | 0.01 | 77 | 1020.4 |
| 20260902153204 | 68 | 228 | 0.0 | 3.0 | 0.00 | 0.85 | 0.01 | 78 | 1020.4 |
| 20260902152704 | 67 | 62 | 1.0 | 1.0 | 0.00 | 0.85 | 0.01 | 78 | 1020.5 |
| 20260902152204 | 67 | 62 | 0.0 | 2.0 | 0.00 | 0.85 | 0.01 | 78 | 1020.6 |
| 20260902151704 | 67 | 62 | 0.0 | 2.0 | 0.00 | 0.85 | 0.01 | 78 | 1020.7 |
| 20260902151204 | 67 | 63 | 0.0 | 1.0 | 0.00 | 0.85 | 0.01 | 79 | 1020.7 |
| 20260902150704 | 67 | 62 | 0.0 | 1.0 | 0.00 | 0.85 | 0.01 | 77 | 1020.8 |
| 20260902150204 | 67 | 60 | 0.0 | 1.0 | 0.00 | 0.85 | 0.01 | 79 | 1021.0 |
| 20260902145704 | 67 | 60 | 1.0 | 3.0 | 0.00 | 0.85 | 0.01 | 80 | 1021.2 |
| 20260902145204 | 67 | 59 | 0.0 | 2.0 | 0.00 | 0.85 | 0.01 | 80 | 1021.2 |
| 20260902144704 | 67 | 60 | 0.0 | 1.0 | 0.00 | 0.85 | 0.01 | 80 | 1021.3 |
| 20260902143704 | 67 | 45 | 1.0 | 3.0 | 0.00 | 0.85 | 0.01 | 81 | 1021.4 |
| 20260902143204 | 66 | 88 | 0.0 | 3.0 | 0.00 | 0.85 | 0.01 | 80 | 1021.2 |
| 20260902142705 | 66 | 103 | 1.0 | 3.0 | 0.00 | 0.85 | 0.01 | 81 | 1021.0 |
| 20260902142204 | 66 | 258 | 1.0 | 2.0 | 0.00 | 0.85 | 0.01 | 82 | 1021.0 |
| 20260902141704 | 66 | 257 | 0.0 | 2.0 | 0.00 | 0.85 | 0.01 | 82 | 1021.0 |
| 20260902140704 | 66 | 257 | 1.0 | 2.0 | 0.00 | 0.85 | 0.01 | 82 | 1021.1 |
| 20260902135704 | 65 | 257 | 0.0 | 2.0 | 0.00 | 0.86 | 0.01 | 84 | 1021.1 |
| 20260902135204 | 65 | 257 | 1.0 | 2.0 | 0.00 | 0.86 | 0.01 | 83 | 1021.1 |
| 20260902134704 | 65 | 257 | 0.0 | 1.0 | 0.00 | 0.87 | 0.01 | 83 | 1021.0 |
| 20260902134204 | 65 | 257 | 1.0 | 3.0 | 0.00 | 0.87 | 0.01 | 83 | 1021.1 |
| 20260902133704 | 65 | 258 | 0.0 | 3.0 | 0.00 | 0.88 | 0.01 | 83 | 1021.0 |
| 20260902133203 | 65 | 191 | 0.0 | 2.0 | 0.00 | 0.88 | 0.01 | 84 | 1020.9 |
| 20260902132705 | 65 | 99 | 1.0 | 3.0 | 0.00 | 0.88 | 0.01 | 85 | 1020.9 |
| 20260902132204 | 64 | 243 | 0.0 | 1.0 | 0.00 | 0.88 | 0.01 | 86 | 1020.9 |
| 20260902131704 | 64 | 243 | 1.0 | 3.0 | 0.00 | 0.88 | 0.01 | 86 | 1020.8 |
| 20260902131203 | 64 | 243 | 0.0 | 2.0 | 0.00 | 0.88 | 0.01 | 86 | 1020.8 |
| 20260902130704 | 64 | 244 | 0.0 | 1.0 | 0.00 | 0.88 | 0.01 | 87 | 1020.6 |
| 20260902130204 | 63 | 244 | 0.0 | 1.0 | 0.00 | 0.88 | 0.01 | 88 | 1020.7 |
| 20260902125704 | 63 | 244 | 0.0 | 1.0 | 0.00 | 0.88 | 0.01 | 87 | 1020.7 |
| 20260902125204 | 63 | 244 | 0.0 | 5.0 | 0.00 | 0.88 | 0.01 | 88 | 1020.8 |
| 20260902124704 | 63 | 97 | 0.0 | 0.0 | 0.00 | 0.89 | 0.01 | 89 | 1020.9 |
| 20260902124204 | 62 | 97 | 0.0 | 2.0 | 0.00 | 0.91 | 0.01 | 89 | 1020.8 |
| 20260902123704 | 62 | 351 | 1.0 | 3.0 | 0.00 | 0.93 | 0.01 | 89 | 1020.8 |
| 20260902122704 | 62 | 14 | 2.0 | 3.0 | 0.00 | 0.96 | 0.01 | 90 | 1020.7 |
| 20260902122204 | 62 | 187 | 1.0 | 2.0 | 0.00 | 0.96 | 0.01 | 90 | 1020.6 |
| 20260902121706 | 62 | 207 | 1.0 | 3.0 | 0.00 | 0.96 | 0.01 | 90 | 1020.5 |
| 20260902121204 | 62 | 183 | 0.0 | 1.0 | 0.00 | 0.96 | 0.01 | 90 | 1020.4 |
| 20260902120706 | 62 | 183 | 0.0 | 2.0 | 0.00 | 0.97 | 0.01 | 90 | 1020.3 |
| 20260902120204 | 62 | 193 | 1.0 | 3.0 | 0.00 | 0.97 | 0.01 | 91 | 1020.4 |
| 20260902115704 | 62 | 116 | 0.0 | 0.0 | 0.00 | 0.97 | 0.01 | 91 | 1020.3 |
| 20260902115204 | 62 | 116 | 0.0 | 0.0 | 0.00 | 0.97 | 0.01 | 91 | 1020.4 |
| 20260902114703 | 62 | 116 | 0.0 | 0.0 | 0.00 | 0.97 | 0.01 | 91 | 1020.4 |
| 20260902113704 | 62 | 116 | 0.0 | 0.0 | 0.00 | 0.97 | 0.01 | 91 | 1020.5 |
| 20260902113204 | 62 | 116 | 0.0 | 0.0 | 0.00 | 0.97 | 0.01 | 91 | 1020.6 |
| 20260902112704 | 62 | 116 | 0.0 | 0.0 | 0.00 | 0.97 | 0.01 | 91 | 1020.7 |
| 20260902112205 | 62 | 116 | 0.0 | 0.0 | 0.00 | 0.97 | 0.01 | 91 | 1020.8 |
| 20260902111704 | 62 | 116 | 0.0 | 0.0 | 0.00 | 0.98 | 0.01 | 91 | 1020.9 |
| 20260902111204 | 62 | 116 | 0.0 | 0.0 | 0.00 | 0.98 | 0.01 | 91 | 1020.9 |
| 20260902110704 | 61 | 116 | 0.0 | 0.0 | 0.00 | 0.98 | 0.01 | 91 | 1021.0 |
| 20260902110204 | 61 | 116 | 0.0 | 0.0 | 0.00 | 0.99 | 0.01 | 91 | 1020.9 |
| 20260902105704 | 61 | 116 | 0.0 | 0.0 | 0.00 | 1.00 | 0.01 | 91 | 1020.8 |
| 20260902105204 | 62 | 116 | 0.0 | 0.0 | 0.00 | 1.00 | 0.01 | 91 | 1020.8 |
| 20260902104705 | 62 | 116 | 0.0 | 0.0 | 0.00 | 1.08 | 0.01 | 91 | 1020.7 |
| 20260902104205 | 62 | 116 | 0.0 | 0.0 | 0.00 | 1.10 | 0.01 | 91 | 1020.7 |
| 20260902103704 | 62 | 116 | 0.0 | 0.0 | 0.00 | 1.12 | 0.01 | 91 | 1020.6 |
| 20260902103205 | 62 | 116 | 0.0 | 0.0 | 0.00 | 1.12 | 0.01 | 91 | 1020.5 |